Time;durP1;ratioP1;P1;durP2;ratioP2;P2;SDS_P1;SDS_P2;PMS_P1;PMS_P2;Temp;Humidity;BMP_temperature;BMP_pressure;BME280_temperature;BME280_humidity;BME280_pressure;Samples;Min_cycle;Max_cycle;Signal;HPM_P1;HPM_P2
2024/01/05 00:52:15;;;;;;;0.10;0.10;;;;;;;;;;4971613;28;20096;-87
2024/01/05 00:54:41;;;;;;;0.10;0.10;;;;;;;;;;4971872;28;20023;-87
2024/01/05 00:57:07;;;;;;;0.10;0.10;;;;;;;;;;4971738;28;20440;-87
2024/01/05 00:59:33;;;;;;;0.10;0.10;;;;;;;;;;4971391;28;20027;-87
2024/01/05 01:01:59;;;;;;;0.10;0.10;;;;;;;;;;4971408;28;20058;-88
2024/01/05 01:04:25;;;;;;;0.10;0.10;;;;;;;;;;4972096;28;20115;-87
2024/01/05 01:06:50;;;;;;;0.10;0.10;;;;;;;;;;4973146;28;20111;-87
2024/01/05 01:09:16;;;;;;;0.10;0.10;;;;;;;;;;4971780;28;20031;-89
2024/01/05 01:11:42;;;;;;;0.10;0.10;;;;;;;;;;4971703;28;20030;-89
2024/01/05 01:14:08;;;;;;;0.10;0.10;;;;;;;;;;4968993;28;20466;-88
2024/01/05 01:16:34;;;;;;;0.10;0.10;;;;;;;;;;4952127;29;20031;-89
2024/01/05 01:19:00;;;;;;;0.10;0.10;;;5.60;99.90;;;;;;4952432;29;20030;-88
2024/01/05 01:21:26;;;;;;;0.10;0.10;;;;;;;;;;4954318;28;20394;-88
2024/01/05 01:23:52;;;;;;;0.10;0.10;;;;;;;;;;4955408;29;20027;-89
2024/01/05 01:26:18;;;;;;;0.10;0.10;;;;;;;;;;4957666;29;20059;-87
2024/01/05 01:28:44;;;;;;;0.10;0.10;;;;;;;;;;4957060;29;20500;-87
2024/01/05 01:31:10;;;;;;;0.10;0.10;;;;;;;;;;4955081;28;20027;-87
2024/01/05 01:33:36;;;;;;;0.10;0.10;;;;;;;;;;4955579;29;20085;-89
2024/01/05 01:36:02;;;;;;;0.10;0.10;;;;;;;;;;4956698;29;20039;-87
2024/01/05 01:38:28;;;;;;;0.10;0.10;;;;;;;;;;4955387;29;20161;-87
2024/01/05 01:40:55;;;;;;;0.08;0.08;;;;;;;;;;4955843;29;20181;-88
2024/01/05 01:43:24;;;;;;;0.10;0.10;;;5.70;99.90;;;;;;4955446;28;20023;-88
2024/01/05 01:45:50;;;;;;;0.10;0.10;;;;;;;;;;4956169;28;20760;-88
2024/01/05 01:48:18;;;;;;;0.10;0.10;;;5.80;99.90;;;;;;4974262;28;20027;-90
2024/01/05 01:50:44;;;;;;;0.10;0.10;;;;;;;;;;4974745;28;20050;-89
2024/01/05 01:53:12;;;;;;;0.00;0.00;;;5.90;99.90;;;;;;4962535;28;20081;-88
2024/01/05 01:55:39;;;;;;;0.10;0.10;;;;;;;;;;4955324;29;20493;-88
2024/01/05 01:58:04;;;;;;;0.10;0.10;;;;;;;;;;4954808;29;20099;-88
2024/01/05 02:00:31;;;;;;;0.10;0.10;;;;;;;;;;4955267;29;20490;-88
2024/01/05 02:02:57;;;;;;;0.10;0.10;;;;;;;;;;4956320;28;20310;-88
2024/01/05 02:05:23;;;;;;;0.00;0.00;;;;;;;;;;4954968;29;20112;-88
2024/01/05 02:07:49;;;;;;;0.10;0.10;;;;;;;;;;4956104;29;20023;-88
2024/01/05 02:10:15;;;;;;;0.10;0.10;;;;;;;;;;4956769;29;20027;-88
2024/01/05 02:12:42;;;;;;;0.10;0.10;;;;;;;;;;4959724;28;20038;-87
2024/01/05 02:15:07;;;;;;;0.00;0.00;;;5.90;99.90;;;;;;4974030;28;20035;-88
2024/01/05 02:17:34;;;;;;;0.05;0.05;;;;;;;;;;4975496;28;20045;-88
2024/01/05 02:20:00;;;;;;;0.10;0.10;;;5.70;99.90;;;;;;4973930;28;20033;-87
2024/01/05 02:22:29;;;;;;;0.10;0.10;;;5.80;99.90;;;;;;4974225;28;20375;-87
2024/01/05 02:24:55;;;;;;;0.10;0.10;;;;;;;;;;4974166;28;20027;-88
2024/01/05 02:27:20;;;;;;;0.10;0.10;;;;;;;;;;4974025;28;20038;-87
2024/01/05 02:29:46;;;;;;;0.10;0.10;;;5.80;99.90;;;;;;4975083;28;20042;-87
2024/01/05 02:32:12;;;;;;;0.10;0.10;;;;;;;;;;4975322;28;20039;-88
2024/01/05 02:34:38;;;;;;;0.10;0.10;;;;;;;;;;4972426;28;20130;-88
2024/01/05 02:37:04;;;;;;;0.10;0.10;;;;;;;;;;4974225;28;20496;-90
2024/01/05 02:39:30;;;;;;;0.10;0.10;;;;;;;;;;4973630;28;20474;-88
2024/01/05 02:41:55;;;;;;;0.10;0.10;;;;;;;;;;4973643;28;20031;-87
2024/01/05 02:44:21;;;;;;;0.10;0.10;;;;;;;;;;4973615;28;20524;-88
2024/01/05 02:46:47;;;;;;;0.10;0.10;;;;;;;;;;4973746;28;20023;-88
2024/01/05 02:49:13;;;;;;;0.10;0.10;;;;;;;;;;4974006;28;20023;-88
2024/01/05 02:51:39;;;;;;;0.00;0.00;;;;;;;;;;4973109;28;20049;-88
2024/01/05 02:54:05;;;;;;;0.10;0.10;;;;;;;;;;4973670;28;20038;-87
2024/01/05 02:56:33;;;;;;;0.10;0.10;;;;;;;;;;4973950;28;20516;-87
2024/01/05 02:58:59;;;;;;;0.10;0.10;;;;;;;;;;4963806;28;20030;-87
2024/01/05 03:01:25;;;;;;;0.00;0.00;;;;;;;;;;4955421;28;20031;-87
2024/01/05 03:03:51;;;;;;;0.10;0.10;;;;;;;;;;4954615;29;20023;-87
2024/01/05 03:06:18;;;;;;;0.10;0.10;;;6.00;99.90;;;;;;4955981;29;20069;-88
2024/01/05 03:08:44;;;;;;;0.10;0.10;;;;;;;;;;4954032;28;20035;-88
2024/01/05 03:11:11;;;;;;;0.10;0.10;;;;;;;;;;4964796;28;20490;-88
2024/01/05 03:13:37;;;;;;;0.03;0.03;;;;;;;;;;4960573;28;20039;-88
2024/01/05 03:16:04;;;;;;;0.10;0.10;;;5.90;99.90;;;;;;4971032;28;20027;-88
2024/01/05 03:18:30;;;;;;;0.10;0.10;;;;;;;;;;4953972;28;20023;-88
2024/01/05 03:20:56;;;;;;;0.10;0.10;;;;;;;;;;4953850;29;20035;-87
2024/01/05 03:23:22;;;;;;;0.10;0.10;;;;;;;;;;4953838;28;20027;-87
2024/01/05 03:25:50;;;;;;;0.10;0.10;;;;;;;;;;4967046;28;20027;-88
2024/01/05 03:28:16;;;;;;;0.10;0.10;;;;;;;;;;4987131;28;20032;-88
2024/01/05 03:30:42;;;;;;;0.10;0.10;;;;;;;;;;5040529;28;20023;-87
2024/01/05 03:33:08;;;;;;;0.10;0.10;;;6.10;99.90;;;;;;4972980;28;20031;-89
2024/01/05 03:35:34;;;;;;;0.10;0.10;;;;;;;;;;4973073;28;20481;-88
2024/01/05 03:38:00;;;;;;;0.10;0.10;;;;;;;;;;4972592;28;20027;-88
2024/01/05 03:40:25;;;;;;;0.10;0.10;;;;;;;;;;4972710;28;20037;-89
2024/01/05 03:42:51;;;;;;;0.10;0.10;;;6.10;99.90;;;;;;4972962;28;20390;-88
2024/01/05 03:45:17;;;;;;;0.10;0.10;;;;;;;;;;4972409;28;20026;-87
2024/01/05 03:47:43;;;;;;;0.10;0.10;;;;;;;;;;4972685;28;20045;-88
2024/01/05 03:50:08;;;;;;;0.10;0.10;;;6.10;99.90;;;;;;4972975;28;20045;-88
2024/01/05 03:52:35;;;;;;;0.10;0.10;;;6.20;99.90;;;;;;4962409;28;20046;-89
2024/01/05 03:55:01;;;;;;;0.10;0.10;;;;;;;;;;4953523;28;20122;-88
2024/01/05 03:57:28;;;;;;;0.10;0.10;;;;;;;;;;4965747;28;20095;-86
2024/01/05 03:59:54;;;;;;;0.10;0.10;;;;;;;;;;4972903;28;20052;-88
2024/01/05 04:02:19;;;;;;;0.10;0.10;;;;;;;;;;4972488;28;20056;-88
2024/01/05 04:04:46;;;;;;;0.10;0.10;;;;;;;;;;4972106;28;20508;-88
2024/01/05 04:07:12;;;;;;;0.10;0.10;;;;;;;;;;4972377;28;20513;-88
2024/01/05 04:09:38;;;;;;;0.10;0.10;;;;;;;;;;4969068;28;20035;-88
2024/01/05 04:12:04;;;;;;;0.10;0.10;;;;;;;;;;4962869;28;20038;-88
2024/01/05 04:14:30;;;;;;;0.10;0.10;;;;;;;;;;4972419;28;20485;-88
2024/01/05 04:16:56;;;;;;;0.10;0.10;;;;;;;;;;4962532;28;20031;-87
2024/01/05 04:19:22;;;;;;;0.10;0.10;;;;;;;;;;4953374;28;20034;-88
2024/01/05 04:21:48;;;;;;;0.08;0.08;;;;;;;;;;4953246;28;20114;-87
2024/01/05 04:24:14;;;;;;;0.10;0.10;;;;;;;;;;4954521;28;20031;-88
2024/01/05 04:26:40;;;;;;;0.00;0.00;;;6.40;99.90;;;;;;4953139;28;20042;-89
2024/01/05 04:29:06;;;;;;;0.10;0.10;;;;;;;;;;4952837;28;20036;-88
2024/01/05 04:31:32;;;;;;;0.10;0.10;;;;;;;;;;4966091;28;20106;-88
2024/01/05 04:33:57;;;;;;;0.10;0.10;;;6.50;99.90;;;;;;4964183;28;20027;-88
2024/01/05 04:36:23;;;;;;;0.10;0.10;;;;;;;;;;4952897;28;20027;-88
2024/01/05 04:38:49;;;;;;;0.10;0.10;;;;;;;;;;4953463;28;20101;-86
2024/01/05 04:41:16;;;;;;;0.10;0.10;;;6.20;99.90;;;;;;4969857;28;20026;-88
2024/01/05 04:43:45;;;;;;;0.10;0.10;;;6.10;99.90;;;;;;4972246;28;20091;-89
2024/01/05 04:46:11;;;;;;;0.10;0.10;;;;;;;;;;4973942;28;20050;-87
2024/01/05 04:48:37;;;;;;;0.10;0.10;;;;;;;;;;4972474;28;20371;-88
2024/01/05 04:51:03;;;;;;;0.10;0.10;;;;;;;;;;4965529;28;20050;-88
2024/01/05 04:53:29;;;;;;;0.10;0.10;;;;;;;;;;4953238;28;20069;-88
2024/01/05 04:55:55;;;;;;;0.10;0.10;;;5.90;99.90;;;;;;4952912;28;20042;-88
2024/01/05 04:58:21;;;;;;;0.10;0.10;;;;;;;;;;4972121;28;20508;-87
2024/01/05 05:00:47;;;;;;;0.10;0.10;;;;;;;;;;4961569;28;20024;-88
2024/01/05 05:03:14;;;;;;;0.10;0.10;;;5.90;99.90;;;;;;4956378;28;20031;-88
2024/01/05 05:05:40;;;;;;;0.00;0.00;;;;;;;;;;4958020;29;20019;-88
2024/01/05 05:08:05;;;;;;;0.10;0.10;;;5.90;99.90;;;;;;4956200;29;20035;-88
2024/01/05 05:10:31;;;;;;;0.10;0.10;;;5.90;99.90;;;;;;4958191;29;20098;-89
2024/01/05 05:12:57;;;;;;;0.10;0.10;;;;;;;;;;4956430;28;20027;-88
2024/01/05 05:15:23;;;;;;;0.10;0.10;;;;;;;;;;4956166;29;20035;-88
2024/01/05 05:17:51;;;;;;;0.10;0.10;;;;;;;;;;4971793;28;20106;-87
2024/01/05 05:20:17;;;;;;;0.10;0.10;;;;;;;;;;4975796;28;20049;-88
2024/01/05 05:22:43;;;;;;;0.10;0.10;;;;;;;;;;4974845;28;20035;-87
2024/01/05 05:25:08;;;;;;;0.10;0.10;;;;;;;;;;4977008;28;20501;-87
2024/01/05 05:27:34;;;;;;;0.10;0.10;;;6.10;99.90;;;;;;4975720;28;20152;-89
2024/01/05 05:30:04;;;;;;;0.10;0.10;;;6.40;99.90;;;;;;4975624;28;20031;-89
2024/01/05 05:32:29;;;;;;;0.10;0.10;;;6.30;99.90;;;;;;4974782;28;20386;-87
2024/01/05 05:34:55;;;;;;;0.10;0.10;;;;;;;;;;4975194;28;20031;-88
2024/01/05 05:37:21;;;;;;;0.10;0.10;;;;;;;;;;4976662;28;20555;-89
2024/01/05 05:39:47;;;;;;;0.10;0.10;;;;;;;;;;4975228;28;20031;-89
2024/01/05 05:42:13;;;;;;;0.10;0.10;;;;;;;;;;4975092;28;20092;-88
2024/01/05 05:44:39;;;;;;;0.10;0.10;;;;;;;;;;4975004;28;20027;-88
2024/01/05 05:47:05;;;;;;;0.10;0.10;;;;;;;;;;4974911;28;20027;-87
2024/01/05 05:49:31;;;;;;;0.10;0.10;;;;;;;;;;4970926;28;20027;-88
2024/01/05 05:51:57;;;;;;;0.10;0.10;;;;;;;;;;4955269;28;20071;-88
2024/01/05 05:54:23;;;;;;;0.10;0.10;;;;;;;;;;4956025;28;20031;-87
2024/01/05 05:56:48;;;;;;;0.10;0.10;;;6.60;99.90;;;;;;4956312;28;20058;-89
2024/01/05 05:59:14;;;;;;;0.10;0.10;;;;;;;;;;4955990;28;20023;-87
2024/01/05 06:01:40;;;;;;;0.10;0.10;;;;;;;;;;4968569;28;20027;-88
2024/01/05 06:04:07;;;;;;;0.10;0.10;;;;;;;;;;4959650;28;20123;-88
2024/01/05 06:06:34;;;;;;;0.10;0.10;;;;;;;;;;4956078;28;20027;-89
2024/01/05 06:09:00;;;;;;;0.10;0.10;;;;;;;;;;4956260;28;20395;-89
2024/01/05 06:11:26;;;;;;;0.10;0.10;;;;;;;;;;4961412;28;20023;-88
2024/01/05 06:13:52;;;;;;;0.10;0.10;;;;;;;;;;4975753;28;20031;-90
2024/01/05 06:16:18;;;;;;;0.10;0.10;;;;;;;;;;4966808;28;20038;-89
2024/01/05 06:18:44;;;;;;;0.10;0.10;;;;;;;;;;4961377;28;20023;-88
2024/01/05 06:21:10;;;;;;;0.10;0.10;;;;;;;;;;4975533;28;20026;-90
2024/01/05 06:23:36;;;;;;;0.10;0.10;;;;;;;;;;4976042;28;20393;-90
2024/01/05 06:26:02;;;;;;;0.10;0.10;;;;;;;;;;4974695;28;20025;-90
2024/01/05 06:28:28;;;;;;;0.10;0.10;;;;;;;;;;4975649;28;20023;-90
2024/01/05 06:30:54;;;;;;;0.10;0.10;;;;;;;;;;4976856;28;20034;-89
2024/01/05 06:33:20;;;;;;;0.10;0.10;;;;;;;;;;4974938;28;20034;-90
2024/01/05 06:35:46;;;;;;;0.10;0.10;;;;;;;;;;4974935;28;20034;-88
2024/01/05 06:38:12;;;;;;;0.10;0.10;;;;;;;;;;4974501;28;20030;-88
2024/01/05 06:40:38;;;;;;;0.10;0.10;;;;;;;;;;4976480;28;20023;-89
2024/01/05 06:43:04;;;;;;;0.10;0.10;;;;;;;;;;4975907;28;20027;-88
2024/01/05 06:45:30;;;;;;;0.10;0.10;;;;;;;;;;4976832;28;20035;-88
2024/01/05 06:47:56;;;;;;;0.10;0.10;;;;;;;;;;4974503;28;20064;-89
2024/01/05 06:50:24;;;;;;;0.10;0.10;;;;;;;;;;4974162;28;20497;-89
2024/01/05 06:52:50;;;;;;;0.10;0.10;;;;;;;;;;4975971;28;20027;-89
2024/01/05 06:55:15;;;;;;;0.10;0.10;;;6.80;99.90;;;;;;4974445;28;20030;-90
2024/01/05 06:57:41;;;;;;;0.10;0.10;;;;;;;;;;4973835;28;20497;-88
2024/01/05 07:00:11;;;;;;;0.10;0.10;;;6.30;99.90;;;;;;4974263;28;20396;-89
2024/01/05 07:02:37;;;;;;;0.10;0.10;;;;;;;;;;4973745;28;20023;-89
2024/01/05 07:59:25;;;;;;;0.10;0.10;;;;;;;;;;5048850;28;20131;-92
2024/01/05 08:01:54;;;;;;;0.10;0.10;;;;;;;;;;5066271;28;20097;-90
2024/01/05 08:04:20;;;;;;;0.10;0.10;;;;;;;;;;5065916;28;20093;-90
2024/01/05 08:06:50;;;;;;;0.10;0.10;;;;;;;;;;5048855;28;20029;-89
2024/01/05 09:58:05;;;;;;;0.00;0.00;;;;;;;;;;5076795;28;20025;-94
2024/01/05 10:00:30;;;;;;;0.10;0.10;;;;;;;;;;5094984;28;20048;-94
2024/01/05 10:02:58;;;;;;;0.10;0.10;;;;;;;;;;5080186;28;20009;-96
2024/01/05 10:05:25;;;;;;;0.10;0.10;;;;;;;;;;5075381;28;20008;-96
2024/01/05 10:07:51;;;;;;;0.10;0.10;;;;;;;;;;5079276;28;20020;-95
2024/01/05 10:54:16;;;;;;;0.00;0.00;;;;;;;;;;5063981;28;20041;-92
2024/01/05 10:56:43;;;;;;;0.00;0.00;;;9.60;99.90;;;;;;5067883;28;20044;-91
2024/01/05 10:59:10;;;;;;;0.00;0.00;;;;;;;;;;5071172;28;20090;-88
2024/01/05 11:01:37;;;;;;;0.00;0.00;;;;;;;;;;5066175;28;20042;-88
2024/01/05 11:48:33;;;;;;;0.00;0.00;;;9.80;99.90;;;;;;5052901;28;20044;-91
2024/01/05 11:50:59;;;;;;;0.00;0.00;;;;;;;;;;5055743;28;20496;-91
2024/01/05 11:53:28;;;;;;;0.00;0.00;;;;;;;;;;5044296;28;20609;-91
2024/01/05 11:55:56;;;;;;;0.08;0.08;;;9.70;99.90;;;;;;5050448;28;20025;-91
2024/01/05 11:58:27;;;;;;;0.00;0.00;;;9.70;99.90;;;;;;5047658;28;20083;-90
2024/01/05 12:00:55;;;;;;;0.00;0.00;;;9.70;99.90;;;;;;5048650;28;20079;-91
2024/01/05 12:03:24;;;;;;;0.00;0.00;;;;;;;;;;5038471;28;20037;-90
2024/01/05 12:06:03;;;;;;;0.00;0.00;;;9.70;99.90;;;;;;5046792;28;20119;-91
2024/01/05 12:08:30;;;;;;;0.00;0.00;;;;;;;;;;5049992;28;20041;-91
2024/01/05 12:11:03;;;;;;;0.00;0.00;;;9.80;99.90;;;;;;5053634;28;20029;-91
2024/01/05 12:13:30;;;;;;;0.00;0.00;;;9.80;99.90;;;;;;5052645;28;20045;-92
2024/01/05 12:15:57;;;;;;;0.10;0.10;;;9.80;99.90;;;;;;5050979;28;20174;-91
2024/01/05 12:18:32;;;;;;;0.00;0.00;;;;;;;;;;5051131;28;20661;-91
2024/01/05 12:21:01;;;;;;;0.00;0.00;;;9.70;99.90;;;;;;5049795;28;20025;-90
2024/01/05 12:23:28;;;;;;;0.00;0.00;;;9.70;99.90;;;;;;5062362;28;20052;-91
2024/01/05 12:26:08;;;;;;;0.05;0.05;;;9.70;99.90;;;;;;5064397;28;20076;-91
2024/01/05 12:28:36;;;;;;;0.00;0.00;;;9.70;99.90;;;;;;5045749;28;20032;-91
2024/01/05 12:31:02;;;;;;;0.00;0.00;;;;;;;;;;5049948;28;20025;-90
2024/01/05 12:33:30;;;;;;;0.00;0.00;;;9.80;99.90;;;;;;5051016;28;20475;-90
2024/01/05 12:35:56;;;;;;;0.00;0.00;;;;;;;;;;5050073;28;20368;-91
2024/01/05 12:38:28;;;;;;;0.00;0.00;;;9.90;99.90;;;;;;5050826;28;20028;-91
2024/01/05 12:41:09;;;;;;;0.00;0.00;;;9.70;99.90;;;;;;5048767;28;20483;-91
2024/01/05 12:43:43;;;;;;;0.00;0.00;;;9.80;99.90;;;;;;5044354;28;20035;-90
2024/01/05 12:46:45;;;;;;;0.00;0.00;;;9.70;99.90;;;;;;5053153;28;20115;-91
2024/01/05 12:49:21;;;;;;;0.00;0.00;;;9.80;99.90;;;;;;5057472;28;20036;-91
2024/01/05 12:55:34;;;;;;;0.00;0.00;;;;;;;;;;5006054;28;20551;-91
2024/01/05 12:58:03;;;;;;;0.00;0.00;;;;;;;;;;4987587;28;20500;-91
2024/01/05 13:00:30;;;;;;;0.00;0.00;;;;;;;;;;5022276;28;20039;-91
2024/01/05 13:02:56;;;;;;;0.00;0.00;;;;;;;;;;5053526;28;20051;-91
2024/01/05 13:05:29;;;;;;;0.00;0.00;;;9.60;99.90;;;;;;5048894;28;20469;-91
2024/01/05 13:07:55;;;;;;;0.05;0.05;;;;;;;;;;5046260;28;20559;-91
2024/01/05 13:10:22;;;;;;;0.05;0.05;;;9.50;99.90;;;;;;5051550;28;20078;-91
2024/01/05 13:12:49;;;;;;;0.00;0.00;;;;;;;;;;5046799;28;20041;-92
2024/01/05 13:15:15;;;;;;;0.10;0.10;;;;;;;;;;5058900;28;20025;-90
2024/01/05 13:17:46;;;;;;;0.00;0.00;;;9.50;99.90;;;;;;5064690;28;20574;-90
2024/01/05 13:20:12;;;;;;;0.00;0.00;;;;;;;;;;5054095;28;20059;-90
2024/01/05 13:22:38;;;;;;;0.00;0.00;;;;;;;;;;5054581;28;20029;-90
2024/01/05 13:25:04;;;;;;;0.05;0.05;;;;;;;;;;5068409;28;20035;-91
2024/01/05 13:27:30;;;;;;;0.00;0.00;;;;;;;;;;5053795;28;20036;-90
2024/01/05 13:29:57;;;;;;;0.00;0.00;;;;;;;;;;5056714;28;20524;-91
2024/01/05 13:32:23;;;;;;;0.00;0.00;;;;;;;;;;5055189;28;20033;-91
2024/01/05 13:34:48;;;;;;;0.00;0.00;;;;;;;;;;5071518;28;20092;-90
2024/01/05 13:37:15;;;;;;;0.00;0.00;;;;;;;;;;5069514;28;20086;-90
2024/01/05 13:39:41;;;;;;;0.00;0.00;;;;;;;;;;5053771;28;20020;-90
2024/01/05 13:42:07;;;;;;;0.00;0.00;;;;;;;;;;5054829;28;20483;-90
2024/01/05 13:44:34;;;;;;;0.00;0.00;;;9.50;99.90;;;;;;5069333;28;20107;-90
2024/01/05 13:47:00;;;;;;;0.00;0.00;;;;;;;;;;5052219;28;20055;-90
2024/01/05 13:49:26;;;;;;;0.00;0.00;;;9.40;99.90;;;;;;5052229;28;20028;-90
2024/01/05 13:51:52;;;;;;;0.00;0.00;;;;;;;;;;5049740;28;20017;-90
2024/01/05 13:54:17;;;;;;;0.00;0.00;;;;;;;;;;5053144;28;20126;-91
2024/01/05 13:56:43;;;;;;;0.00;0.00;;;;;;;;;;5064611;28;20036;-90
2024/01/05 13:59:09;;;;;;;0.00;0.00;;;;;;;;;;5067027;28;20024;-90
2024/01/05 14:01:35;;;;;;;0.00;0.00;;;;;;;;;;5069746;28;20536;-90
2024/01/05 14:04:01;;;;;;;0.00;0.00;;;;;;;;;;5054683;28;20479;-90
2024/01/05 14:06:27;;;;;;;0.00;0.00;;;;;;;;;;5053937;28;20021;-90
2024/01/05 14:08:53;;;;;;;0.00;0.00;;;;;;;;;;5066232;28;20036;-90
2024/01/05 14:11:19;;;;;;;0.00;0.00;;;;;;;;;;5071965;28;20047;-90
2024/01/05 14:13:45;;;;;;;0.03;0.03;;;;;;;;;;5063843;28;20037;-90
2024/01/05 14:16:11;;;;;;;0.00;0.00;;;;;;;;;;5051616;28;20102;-91
2024/01/05 14:18:37;;;;;;;0.00;0.00;;;;;;;;;;5052409;28;20044;-91
2024/01/05 14:21:03;;;;;;;0.00;0.00;;;;;;;;;;5054508;28;20028;-90
2024/01/05 14:23:29;;;;;;;0.00;0.00;;;;;;;;;;5052377;28;20028;-90
2024/01/05 14:25:55;;;;;;;0.00;0.00;;;;;;;;;;5056782;28;20040;-90
2024/01/05 14:28:21;;;;;;;0.00;0.00;;;;;;;;;;5052605;28;20033;-91
2024/01/05 14:30:47;;;;;;;0.00;0.00;;;;;;;;;;5052344;28;20032;-90
2024/01/05 14:33:13;;;;;;;0.00;0.00;;;;;;;;;;5047804;28;20033;-90
2024/01/05 14:35:40;;;;;;;0.00;0.00;;;8.90;99.90;;;;;;5049724;28;20096;-90
2024/01/05 14:38:06;;;;;;;0.00;0.00;;;;;;;;;;5049180;28;20089;-90
2024/01/05 14:40:35;;;;;;;0.00;0.00;;;;;;;;;;5066432;28;20422;-91
2024/01/05 14:43:01;;;;;;;0.00;0.00;;;;;;;;;;5059199;28;20109;-90
2024/01/05 14:45:27;;;;;;;0.00;0.00;;;;;;;;;;5052188;28;20398;-91
2024/01/05 14:47:53;;;;;;;0.00;0.00;;;;;;;;;;5052702;28;20812;-90
2024/01/05 14:50:19;;;;;;;0.00;0.00;;;;;;;;;;5062781;28;20032;-91
2024/01/05 14:52:45;;;;;;;0.00;0.00;;;;;;;;;;5068880;28;20028;-91
2024/01/05 14:55:11;;;;;;;0.03;0.03;;;;;;;;;;5053301;28;20439;-91
2024/01/05 14:57:37;;;;;;;0.00;0.00;;;;;;;;;;5065590;28;20067;-91
2024/01/05 15:00:03;;;;;;;0.00;0.00;;;;;;;;;;5055190;28;20028;-91
2024/01/05 15:02:29;;;;;;;0.00;0.00;;;;;;;;;;5065185;28;20044;-91
2024/01/05 15:04:55;;;;;;;0.00;0.00;;;;;;;;;;5052997;28;20455;-91
2024/01/05 15:07:21;;;;;;;0.00;0.00;;;;;;;;;;5068586;28;20032;-90
2024/01/05 15:09:47;;;;;;;0.00;0.00;;;;;;;;;;5062707;28;20024;-90
2024/01/05 15:12:13;;;;;;;0.00;0.00;;;;;;;;;;5063807;28;20032;-91
2024/01/05 15:14:39;;;;;;;0.00;0.00;;;;;;;;;;5066080;28;20106;-92
2024/01/05 15:17:05;;;;;;;0.00;0.00;;;;;;;;;;5057166;28;20028;-92
2024/01/05 15:19:31;;;;;;;0.00;0.00;;;;;;;;;;5052972;28;20029;-91
2024/01/05 15:21:57;;;;;;;0.00;0.00;;;;;;;;;;5047321;28;20074;-92
2024/01/05 15:24:23;;;;;;;0.10;0.10;;;;;;;;;;5054868;28;20287;-91
2024/01/05 15:26:49;;;;;;;0.00;0.00;;;;;;;;;;5054417;28;20078;-91
2024/01/05 15:29:15;;;;;;;0.00;0.00;;;;;;;;;;5054767;28;20024;-91
2024/01/05 15:31:41;;;;;;;0.00;0.00;;;;;;;;;;5054477;28;20058;-92
2024/01/05 15:34:07;;;;;;;0.08;0.08;;;;;;;;;;5067664;28;20394;-92
2024/01/05 15:37:36;;;;;;;0.00;0.00;;;8.70;99.90;;;;;;5050597;28;20041;-91
2024/01/05 15:40:20;;;;;;;0.10;0.10;;;8.60;99.90;;;;;;5051812;28;20037;-91
2024/01/05 15:42:46;;;;;;;0.10;0.10;;;;;;;;;;5053158;28;20031;-91
2024/01/05 15:45:14;;;;;;;0.00;0.00;;;;;;;;;;5059124;28;20024;-90
2024/01/05 15:47:39;;;;;;;0.00;0.00;;;;;;;;;;5065937;28;20032;-91
2024/01/05 15:50:08;;;;;;;0.10;0.10;;;;;;;;;;5060969;28;20545;-89
2024/01/05 15:52:34;;;;;;;0.10;0.10;;;;;;;;;;5049541;28;20372;-91
2024/01/05 15:55:00;;;;;;;0.10;0.10;;;;;;;;;;5054775;28;20038;-90
2024/01/05 15:57:26;;;;;;;0.00;0.00;;;;;;;;;;5050370;28;20429;-91
2024/01/05 15:59:52;;;;;;;0.00;0.00;;;;;;;;;;5068609;28;20025;-91
2024/01/05 16:02:18;;;;;;;0.00;0.00;;;;;;;;;;5052414;28;20024;-91
2024/01/05 16:04:43;;;;;;;0.10;0.10;;;;;;;;;;5050736;28;20032;-91
2024/01/05 16:07:09;;;;;;;0.00;0.00;;;;;;;;;;5063744;28;20025;-91
2024/01/05 16:09:35;;;;;;;0.10;0.10;;;;;;;;;;5049334;28;20033;-92
2024/01/05 16:12:04;;;;;;;0.00;0.00;;;;;;;;;;5052324;28;20035;-91
2024/01/05 16:14:30;;;;;;;0.00;0.00;;;;;;;;;;5068743;28;20028;-91
2024/01/05 16:16:57;;;;;;;0.10;0.10;;;;;;;;;;5052608;28;20390;-91
2024/01/05 16:19:23;;;;;;;0.05;0.05;;;;;;;;;;5063056;28;20025;-91
2024/01/05 16:21:49;;;;;;;0.00;0.00;;;;;;;;;;5068956;28;20511;-91
2024/01/05 16:24:15;;;;;;;0.10;0.10;;;;;;;;;;5058654;28;20046;-91
2024/01/05 16:26:43;;;;;;;0.10;0.10;;;;;;;;;;5055908;28;20510;-90
2024/01/05 16:29:09;;;;;;;0.10;0.10;;;;;;;;;;5062500;28;20044;-90
2024/01/05 16:31:35;;;;;;;0.10;0.10;;;;;;;;;;5055444;28;20467;-90
2024/01/05 16:34:01;;;;;;;0.10;0.10;;;;;;;;;;5052085;28;20028;-90
2024/01/05 16:36:27;;;;;;;0.00;0.00;;;;;;;;;;5067670;28;20032;-90
2024/01/05 16:38:53;;;;;;;0.10;0.10;;;;;;;;;;5050891;28;20033;-90
2024/01/05 16:41:23;;;;;;;0.10;0.10;;;;;;;;;;5055716;28;20025;-90
2024/01/05 16:43:50;;;;;;;0.00;0.00;;;8.20;99.90;;;;;;5068408;28;20410;-91
2024/01/05 16:46:17;;;;;;;0.00;0.00;;;;;;;;;;5052390;28;20024;-90
2024/01/05 16:48:47;;;;;;;0.00;0.00;;;;;;;;;;5071638;28;20029;-90
2024/01/05 16:51:13;;;;;;;0.10;0.10;;;;;;;;;;5062636;28;20390;-91
2024/01/05 16:53:39;;;;;;;0.00;0.00;;;;;;;;;;5053404;28;20024;-90
2024/01/05 16:56:05;;;;;;;0.10;0.10;;;;;;;;;;5065244;28;20548;-91
2024/01/05 16:58:31;;;;;;;0.00;0.00;;;;;;;;;;5067256;28;20033;-90
2024/01/05 17:00:57;;;;;;;0.10;0.10;;;;;;;;;;5068070;28;20021;-91
2024/01/05 17:03:23;;;;;;;0.10;0.10;;;;;;;;;;5052992;28;20021;-91
2024/01/05 17:05:49;;;;;;;0.10;0.10;;;;;;;;;;5055052;28;20111;-91
2024/01/05 17:08:24;;;;;;;0.00;0.00;;;;;;;;;;5055872;28;20494;-92
2024/01/05 17:10:53;;;;;;;0.00;0.00;;;;;;;;;;5059996;28;20028;-92
2024/01/05 17:13:19;;;;;;;0.10;0.10;;;;;;;;;;5054742;28;20045;-91
2024/01/05 17:15:45;;;;;;;0.10;0.10;;;;;;;;;;5054352;28;20087;-92
2024/01/05 17:18:11;;;;;;;0.10;0.10;;;;;;;;;;5067975;28;20387;-91
2024/01/05 17:20:37;;;;;;;0.10;0.10;;;;;;;;;;5052967;28;20031;-91
2024/01/05 17:23:03;;;;;;;0.10;0.10;;;;;;;;;;5066894;28;20031;-91
2024/01/05 17:25:29;;;;;;;0.00;0.00;;;;;;;;;;5053951;28;20205;-90
2024/01/05 17:27:55;;;;;;;0.10;0.10;;;;;;;;;;5056211;28;20024;-91
2024/01/05 17:30:21;;;;;;;0.00;0.00;;;;;;;;;;5053359;28;20411;-91
2024/01/05 17:32:49;;;;;;;0.00;0.00;;;;;;;;;;5055539;28;20115;-91
2024/01/05 17:35:15;;;;;;;0.10;0.10;;;;;;;;;;5068206;28;20024;-90
2024/01/05 17:37:41;;;;;;;0.00;0.00;;;;;;;;;;5052415;28;20380;-91
2024/01/05 17:40:07;;;;;;;0.10;0.10;;;;;;;;;;5068192;28;20024;-91
2024/01/05 17:42:34;;;;;;;0.00;0.00;;;;;;;;;;5050833;28;20065;-92
2024/01/05 17:45:00;;;;;;;0.10;0.10;;;;;;;;;;5053473;28;20113;-91
2024/01/05 17:47:26;;;;;;;0.10;0.10;;;;;;;;;;5051937;28;20566;-91
2024/01/05 17:49:52;;;;;;;0.05;0.05;;;;;;;;;;5052272;28;20035;-92
2024/01/05 17:52:20;;;;;;;0.10;0.10;;;;;;;;;;5050871;28;20029;-91
2024/01/05 17:54:46;;;;;;;0.10;0.10;;;;;;;;;;5050131;28;20886;-93
2024/01/05 17:57:12;;;;;;;0.10;0.10;;;;;;;;;;5048676;28;20123;-91
2024/01/05 17:59:38;;;;;;;0.10;0.10;;;;;;;;;;5068286;28;20107;-92
2024/01/05 18:02:04;;;;;;;0.10;0.10;;;;;;;;;;5054898;28;20024;-92
2024/01/05 18:04:30;;;;;;;0.10;0.10;;;;;;;;;;5051896;28;20029;-92
2024/01/05 18:06:56;;;;;;;0.10;0.10;;;;;;;;;;5057265;28;20035;-92
2024/01/05 18:09:22;;;;;;;0.10;0.10;;;;;;;;;;5056463;28;20364;-91
2024/01/05 18:11:48;;;;;;;0.10;0.10;;;;;;;;;;5056538;28;20024;-92
2024/01/05 18:14:14;;;;;;;0.10;0.10;;;;;;;;;;5057850;28;20070;-92
2024/01/05 18:16:40;;;;;;;0.10;0.10;;;;;;;;;;5055452;28;20017;-92
2024/01/05 18:19:08;;;;;;;0.10;0.10;;;;;;;;;;5072817;28;20431;-92
2024/01/05 18:21:34;;;;;;;0.10;0.10;;;;;;;;;;5071667;28;20070;-91
2024/01/05 18:24:02;;;;;;;0.10;0.10;;;;;;;;;;5055732;28;20028;-92
2024/01/05 18:26:28;;;;;;;0.10;0.10;;;;;;;;;;5072454;28;20040;-91
2024/01/05 18:28:54;;;;;;;0.10;0.10;;;;;;;;;;5052712;28;20036;-92
2024/01/05 18:31:27;;;;;;;0.10;0.10;;;7.70;99.90;;;;;;5056486;28;20025;-92
2024/01/05 18:33:53;;;;;;;0.10;0.10;;;;;;;;;;5056060;28;20078;-93
2024/01/05 18:36:19;;;;;;;0.10;0.10;;;;;;;;;;5052559;28;20078;-93
2024/01/05 18:38:46;;;;;;;0.10;0.10;;;;;;;;;;5062276;28;20043;-92
2024/01/05 18:41:38;;;;;;;0.10;0.10;;;7.60;99.90;;;;;;5061548;28;20041;-92
2024/01/05 18:44:06;;;;;;;0.10;0.10;;;;;;;;;;5055132;28;20047;-92
2024/01/05 18:46:32;;;;;;;0.10;0.10;;;;;;;;;;5060099;28;20033;-92
2024/01/05 18:48:58;;;;;;;0.10;0.10;;;;;;;;;;5060217;28;20032;-92
2024/01/05 18:51:25;;;;;;;0.10;0.10;;;;;;;;;;5064783;28;20463;-92
2024/01/05 18:53:51;;;;;;;0.00;0.00;;;;;;;;;;5059278;28;20471;-93
2024/01/05 18:56:17;;;;;;;0.10;0.10;;;;;;;;;;5072134;28;20114;-93
2024/01/05 18:58:44;;;;;;;0.10;0.10;;;;;;;;;;5073323;28;20517;-92
2024/01/05 19:01:10;;;;;;;0.10;0.10;;;7.50;99.90;;;;;;5063909;28;20025;-92
2024/01/05 19:03:36;;;;;;;0.10;0.10;;;;;;;;;;5061463;28;20029;-92
2024/01/05 19:06:03;;;;;;;0.10;0.10;;;;;;;;;;5057687;28;20499;-93
2024/01/05 19:08:29;;;;;;;0.10;0.10;;;;;;;;;;5056991;28;20047;-92
2024/01/05 19:10:55;;;;;;;0.00;0.00;;;;;;;;;;5064054;28;20047;-92
2024/01/05 19:13:21;;;;;;;0.10;0.10;;;;;;;;;;5058771;28;20025;-93
2024/01/05 19:15:47;;;;;;;0.00;0.00;;;;;;;;;;5071112;28;20028;-93
2024/01/05 19:18:13;;;;;;;0.10;0.10;;;;;;;;;;5059648;28;20087;-93
2024/01/05 19:20:39;;;;;;;0.00;0.00;;;;;;;;;;5071382;28;20045;-92
2024/01/05 19:23:05;;;;;;;0.10;0.10;;;;;;;;;;5056895;28;20024;-92
2024/01/05 19:25:31;;;;;;;0.10;0.10;;;;;;;;;;5055911;28;20086;-92
2024/01/05 19:27:56;;;;;;;0.10;0.10;;;7.30;99.90;;;;;;5056814;28;20475;-92